createdAt,value
2023-03-06T00:00:59.431Z,47.03
2023-03-06T00:03:28.866Z,49.90
2023-03-06T00:05:59.199Z,41.22
2023-03-06T00:08:31.519Z,51.42
2023-03-06T00:11:01.246Z,39.08
2023-03-06T00:13:36.347Z,41.45
2023-03-06T00:16:07.267Z,37.65
2023-03-06T00:18:38.735Z,33.58
2023-03-06T00:21:12.222Z,34.90
2023-03-06T00:23:41.512Z,41.97
2023-03-06T00:26:11.966Z,70.47
2023-03-06T00:28:43.913Z,87.43
2023-03-06T00:31:16.067Z,78.50
2023-03-06T00:33:45.082Z,101.43
2023-03-06T00:36:13.307Z,131.30
2023-03-06T00:38:43.600Z,99.90
2023-03-06T00:41:13.462Z,95.68
2023-03-06T00:43:42.668Z,83.35
2023-03-06T00:46:11.212Z,104.13
2023-03-06T00:48:44.265Z,100.15
2023-03-06T00:51:20.031Z,89.97
2023-03-06T00:53:49.377Z,86.63
2023-03-06T00:56:19.960Z,87.80
2023-03-06T00:58:49.440Z,88.20
2023-03-06T01:01:24.994Z,75.93
2023-03-06T01:04:12.913Z,64.97
2023-03-06T01:06:47.099Z,54.53
2023-03-06T01:09:16.476Z,64.13
2023-03-06T01:11:47.132Z,57.10
2023-03-06T01:14:22.283Z,50.60
2023-03-06T01:16:50.545Z,40.70
2023-03-06T01:19:18.819Z,43.92
2023-03-06T01:21:57.193Z,47.50
2023-03-06T01:24:26.033Z,40.50
2023-03-06T01:26:58.931Z,39.63
2023-03-06T01:29:27.115Z,40.72
2023-03-06T01:31:55.796Z,45.58
2023-03-06T01:34:25.893Z,38.47
2023-03-06T01:36:56.926Z,43.78
2023-03-06T01:39:26.818Z,34.00
2023-03-06T01:41:55.034Z,41.78
2023-03-06T01:44:23.413Z,45.58
2023-03-06T01:46:53.046Z,45.13
2023-03-06T01:49:31.653Z,50.88
2023-03-06T01:52:06.340Z,58.40
2023-03-06T01:54:44.626Z,62.03
2023-03-06T01:57:19.526Z,72.35
2023-03-06T01:59:53.329Z,63.10
2023-03-06T02:02:21.777Z,65.68
2023-03-06T02:04:52.514Z,54.40
2023-03-06T02:07:20.978Z,61.05
2023-03-06T02:09:56.326Z,46.78
2023-03-06T02:12:25.923Z,42.45
2023-03-06T02:14:55.687Z,54.70
2023-03-06T02:17:29.428Z,47.55
2023-03-06T02:20:11.788Z,50.60
2023-03-06T02:22:54.665Z,49.42
2023-03-06T02:25:45.048Z,44.10
2023-03-06T02:28:22.858Z,46.10
2023-03-06T02:30:52.438Z,41.55
2023-03-06T02:33:26.669Z,37.88
2023-03-06T02:36:03.870Z,39.70
2023-03-06T02:38:40.378Z,43.20
2023-03-06T02:41:16.538Z,33.65
2023-03-06T02:43:46.803Z,30.92
2023-03-06T02:46:17.926Z,35.55
2023-03-06T02:48:48.664Z,28.35
2023-03-06T02:51:16.887Z,31.35
2023-03-06T02:53:44.998Z,25.20
2023-03-06T02:56:15.432Z,24.52
2023-03-06T02:58:46.409Z,23.58
2023-03-06T03:01:15.298Z,29.35
2023-03-06T03:03:45.046Z,33.72
2023-03-06T03:06:13.988Z,27.92
2023-03-06T03:08:42.095Z,28.67
2023-03-06T03:11:16.385Z,34.15
2023-03-06T03:13:46.970Z,27.02
2023-03-06T03:16:20.169Z,23.25
2023-03-06T03:18:53.853Z,25.25
2023-03-06T03:21:25.666Z,26.08
2023-03-06T03:23:55.750Z,23.17
2023-03-06T03:26:26.209Z,23.80
2023-03-06T03:29:01.484Z,25.45
2023-03-06T03:31:30.141Z,25.83
2023-03-06T03:34:04.850Z,17.17
2023-03-06T03:41:25.571Z,20.02
2023-03-06T03:43:55.221Z,15.75
2023-03-06T03:46:25.599Z,13.07
2023-03-06T03:48:57.313Z,14.10
2023-03-06T03:51:25.424Z,17.67
2023-03-06T03:53:56.947Z,15.30
2023-03-06T03:56:28.174Z,14.55
2023-03-06T03:59:02.081Z,20.38
2023-03-06T04:01:38.439Z,20.45
2023-03-06T04:04:10.213Z,20.55
2023-03-06T04:06:39.341Z,16.63
2023-03-06T04:09:08.128Z,23.17
2023-03-06T04:11:38.924Z,22.73
2023-03-06T04:14:08.501Z,20.27
2023-03-06T04:16:38.247Z,20.67
2023-03-06T04:19:08.132Z,21.63
2023-03-06T04:21:40.574Z,23.10
2023-03-06T04:24:11.673Z,22.73
2023-03-06T04:26:41.011Z,21.30
2023-03-06T04:29:30.084Z,22.58
2023-03-06T04:31:58.940Z,21.02
2023-03-06T04:34:28.493Z,24.65
2023-03-06T04:36:57.288Z,26.73
2023-03-06T04:39:28.434Z,27.48
2023-03-06T04:42:06.871Z,31.37
2023-03-06T04:44:41.343Z,27.87
2023-03-06T04:47:09.342Z,33.30
2023-03-06T04:49:38.710Z,22.48
2023-03-06T04:52:07.555Z,20.30
2023-03-06T04:54:37.445Z,19.77
2023-03-06T04:57:06.429Z,23.25
2023-03-06T04:59:39.063Z,19.13
2023-03-06T05:02:10.703Z,23.83
2023-03-06T05:04:41.626Z,19.27
2023-03-06T05:07:10.975Z,17.90
2023-03-06T05:09:39.303Z,24.52
2023-03-06T05:12:08.226Z,19.25
2023-03-06T05:14:40.483Z,18.83
2023-03-06T05:17:08.678Z,17.20
2023-03-06T05:19:40.076Z,15.93
2023-03-06T05:22:08.423Z,14.23
2023-03-06T05:24:40.278Z,18.00
2023-03-06T05:27:09.509Z,12.43
2023-03-06T05:29:37.583Z,14.85
2023-03-06T05:32:06.663Z,13.35
2023-03-06T05:34:35.058Z,13.88
2023-03-06T05:37:04.445Z,21.88
2023-03-06T05:39:35.262Z,32.38
2023-03-06T05:42:06.479Z,49.60
2023-03-06T05:44:37.025Z,40.63
2023-03-06T05:47:05.362Z,42.78
2023-03-06T05:49:36.924Z,36.47
2023-03-06T05:52:05.910Z,38.08
2023-03-06T05:54:34.542Z,35.08
2023-03-06T05:57:07.381Z,35.50
2023-03-06T05:59:36.175Z,40.28
2023-03-06T06:02:05.771Z,38.80
2023-03-06T06:04:35.019Z,43.22
2023-03-06T06:07:06.212Z,40.72
2023-03-06T06:09:35.233Z,39.83
2023-03-06T06:12:03.938Z,44.80
2023-03-06T06:14:34.220Z,53.15
2023-03-06T06:17:04.337Z,58.15
2023-03-06T06:19:32.653Z,83.00
2023-03-06T06:22:04.018Z,149.52
2023-03-06T06:24:33.204Z,158.32
2023-03-06T06:27:03.739Z,135.75
2023-03-06T06:29:34.518Z,115.75
2023-03-06T06:32:05.242Z,87.32
2023-03-06T06:34:41.026Z,80.00
2023-03-06T06:37:09.014Z,77.22
2023-03-06T06:39:38.314Z,54.40
2023-03-06T06:42:29.058Z,71.25
2023-03-06T06:44:56.941Z,44.08
2023-03-06T06:47:26.244Z,48.35
2023-03-06T06:49:56.643Z,32.17
2023-03-06T06:52:26.925Z,28.75
2023-03-06T06:54:59.812Z,25.98
2023-03-06T06:57:29.287Z,30.88
2023-03-06T06:59:57.551Z,37.15
2023-03-06T07:02:26.337Z,30.70
2023-03-06T07:05:04.230Z,30.58
2023-03-06T07:07:38.172Z,37.65
2023-03-06T07:10:12.878Z,25.33
2023-03-06T07:12:43.221Z,26.15
2023-03-06T07:15:15.079Z,25.55
2023-03-06T07:17:51.840Z,20.55
2023-03-06T07:20:30.087Z,19.58
2023-03-06T07:22:59.582Z,21.30
2023-03-06T07:25:31.568Z,21.25
2023-03-06T07:28:07.424Z,28.73
2023-03-06T07:30:41.407Z,22.55
2023-03-06T07:33:23.518Z,23.55
2023-03-06T07:35:55.327Z,19.67
2023-03-06T07:38:30.728Z,37.97
2023-03-06T07:41:00.609Z,24.55
2023-03-06T07:43:29.131Z,27.02
2023-03-06T07:46:04.873Z,20.73
2023-03-06T07:48:41.504Z,13.55
2023-03-06T07:51:36.289Z,16.42
2023-03-06T07:54:07.294Z,13.00
2023-03-06T07:56:45.540Z,15.85
2023-03-06T07:59:17.129Z,17.67
2023-03-06T08:01:45.790Z,13.63
2023-03-06T08:04:17.793Z,14.65
2023-03-06T08:06:45.822Z,11.00
2023-03-06T08:09:18.611Z,13.27
2023-03-06T08:11:51.017Z,13.65
2023-03-06T08:14:23.212Z,12.00
2023-03-06T08:16:55.742Z,11.57
2023-03-06T08:19:25.152Z,10.35
2023-03-06T08:21:57.512Z,12.57
2023-03-06T08:24:27.636Z,16.58
2023-03-06T08:26:58.425Z,15.40
2023-03-06T08:29:47.306Z,15.15
2023-03-06T08:32:15.478Z,12.57
2023-03-06T08:34:47.539Z,12.10
2023-03-06T08:37:22.489Z,12.85
2023-03-06T08:39:51.080Z,14.75
2023-03-06T08:42:19.216Z,13.52
2023-03-06T08:44:47.705Z,14.07
2023-03-06T08:47:16.174Z,12.88
2023-03-06T08:49:47.998Z,15.57
2023-03-06T08:52:20.147Z,15.15
2023-03-06T08:54:48.457Z,15.77
2023-03-06T08:57:16.497Z,17.17
2023-03-06T08:59:51.565Z,16.40
2023-03-06T09:02:23.590Z,12.75
2023-03-06T09:04:51.742Z,16.67
2023-03-06T09:07:21.000Z,13.15
2023-03-06T09:09:50.427Z,14.65
2023-03-06T09:12:20.286Z,13.32
2023-03-06T09:14:50.905Z,18.25
2023-03-06T09:17:25.097Z,12.18
2023-03-06T09:19:56.231Z,16.63
2023-03-06T09:22:25.098Z,19.50
2023-03-06T09:24:56.221Z,17.20
2023-03-06T09:27:28.792Z,14.48
2023-03-06T09:29:57.053Z,22.50
2023-03-06T09:32:25.799Z,16.75
2023-03-06T09:34:55.741Z,16.17
2023-03-06T09:37:24.877Z,19.60
2023-03-06T09:39:55.366Z,12.15
2023-03-06T09:42:25.379Z,14.25
2023-03-06T09:44:58.471Z,12.82
2023-03-06T09:48:02.441Z,17.52
2023-03-06T09:50:33.893Z,14.20
2023-03-06T09:53:28.623Z,13.07
2023-03-06T09:57:02.424Z,14.13
2023-03-06T10:00:36.312Z,14.15
2023-03-06T10:03:20.077Z,14.80
2023-03-06T10:06:00.893Z,11.52
2023-03-06T10:08:54.658Z,10.65
2023-03-06T10:11:43.021Z,15.63
2023-03-06T10:14:17.329Z,13.18
2023-03-06T10:16:45.730Z,11.43
2023-03-06T10:19:20.074Z,12.40
2023-03-06T10:21:59.187Z,17.77
2023-03-06T10:24:47.360Z,16.50
2023-03-06T10:27:29.317Z,14.00
2023-03-06T10:30:51.520Z,13.10
2023-03-06T10:34:19.121Z,11.40
2023-03-06T10:36:50.293Z,15.85
2023-03-06T10:39:22.446Z,12.35
2023-03-06T10:41:51.218Z,15.88
2023-03-06T10:44:24.896Z,10.80
2023-03-06T10:46:56.493Z,12.90
2023-03-06T10:49:26.262Z,13.15
2023-03-06T10:52:03.262Z,8.90
2023-03-06T10:54:37.071Z,16.42
2023-03-06T10:57:19.735Z,12.65
2023-03-06T11:00:08.761Z,14.02
2023-03-06T11:02:43.611Z,18.08
2023-03-06T11:05:21.194Z,12.10
2023-03-06T11:07:55.458Z,12.90
2023-03-06T11:10:27.367Z,11.88
2023-03-06T11:13:07.872Z,11.75
2023-03-06T11:15:42.161Z,12.88
2023-03-06T11:18:12.520Z,10.70
2023-03-06T11:20:55.043Z,16.05
2023-03-06T11:23:29.105Z,9.85
2023-03-06T11:26:00.131Z,12.60
2023-03-06T11:28:41.284Z,11.15
2023-03-06T11:31:27.667Z,8.85
2023-03-06T11:34:28.436Z,10.55
2023-03-06T11:37:09.236Z,13.35
2023-03-06T11:39:43.552Z,9.82
2023-03-06T11:43:01.035Z,15.18
2023-03-06T11:46:20.246Z,17.85
2023-03-06T11:49:12.643Z,10.23
2023-03-06T11:51:50.589Z,11.43
2023-03-06T12:00:34.220Z,13.70
2023-03-06T12:03:35.973Z,9.02
2023-03-06T12:06:45.892Z,12.40
2023-03-06T12:09:59.666Z,15.57
2023-03-06T12:13:06.628Z,18.00
2023-03-06T12:15:42.022Z,14.55
2023-03-06T12:18:35.946Z,17.58
2023-03-06T12:21:48.344Z,12.57
2023-03-06T12:24:59.883Z,15.32
2023-03-06T12:27:39.643Z,13.35
2023-03-06T12:30:31.975Z,14.10
2023-03-06T12:33:35.723Z,9.43
2023-03-06T12:36:56.568Z,11.45
2023-03-06T12:39:42.550Z,11.02
2023-03-06T12:42:49.203Z,12.38
2023-03-06T12:50:32.639Z,12.20
2023-03-06T12:53:14.474Z,11.50
2023-03-06T12:55:50.879Z,16.92
2023-03-06T12:58:28.878Z,10.18
2023-03-06T13:01:39.482Z,14.55
2023-03-06T13:04:35.405Z,11.90
2023-03-06T13:07:40.171Z,10.55
2023-03-06T13:10:28.450Z,11.60
2023-03-06T13:13:27.712Z,17.13
2023-03-06T13:16:13.848Z,10.50
2023-03-06T13:18:44.093Z,12.80
2023-03-06T13:21:56.711Z,20.35
2023-03-06T13:24:35.030Z,11.98
2023-03-06T13:27:08.363Z,13.90
2023-03-06T13:29:37.243Z,16.75
2023-03-06T13:32:08.047Z,13.02
2023-03-06T13:34:37.482Z,11.65
2023-03-06T13:37:23.267Z,10.35
2023-03-06T13:39:59.808Z,12.02
2023-03-06T13:42:28.770Z,10.90
2023-03-06T13:45:17.604Z,12.70
2023-03-06T13:48:14.161Z,13.82
2023-03-06T13:50:44.060Z,16.95
2023-03-06T13:53:45.896Z,14.95
2023-03-06T13:56:48.139Z,15.48
2023-03-06T13:59:41.874Z,13.57
2023-03-06T14:02:24.206Z,15.57
2023-03-06T14:05:00.210Z,16.50
2023-03-06T14:07:43.092Z,11.35
2023-03-06T14:10:14.723Z,11.90
2023-03-06T14:12:50.966Z,12.65
2023-03-06T14:15:23.070Z,10.02
2023-03-06T14:18:00.612Z,12.05
2023-03-06T14:20:35.766Z,11.18
2023-03-06T14:23:28.259Z,13.27
2023-03-06T14:26:15.617Z,10.10
2023-03-06T14:31:19.163Z,14.25
2023-03-06T14:36:26.326Z,12.60
2023-03-06T14:38:57.358Z,13.48
2023-03-06T14:41:30.315Z,11.15
2023-03-06T14:44:28.593Z,16.85
2023-03-06T14:46:57.540Z,15.52
2023-03-06T14:49:26.062Z,14.07
2023-03-06T14:51:56.608Z,16.75
2023-03-06T14:54:28.821Z,21.38
2023-03-06T14:57:08.212Z,18.48
2023-03-06T14:59:49.214Z,15.60
2023-03-06T15:02:26.812Z,16.77
2023-03-06T15:07:30.648Z,20.23
2023-03-06T15:10:02.865Z,23.48
2023-03-06T15:12:35.285Z,20.45
2023-03-06T15:15:05.249Z,18.02
2023-03-06T15:17:41.849Z,18.35
2023-03-06T15:20:38.177Z,25.95
2023-03-06T15:23:37.330Z,21.83
2023-03-06T15:26:31.963Z,26.00
2023-03-06T15:29:10.349Z,28.52
2023-03-06T15:31:42.346Z,25.38
2023-03-06T15:34:11.120Z,28.25
2023-03-06T15:36:42.958Z,24.63
2023-03-06T15:39:36.458Z,36.30
2023-03-06T15:42:25.096Z,39.88
2023-03-06T15:44:58.058Z,41.83
2023-03-06T15:47:26.285Z,46.70
2023-03-06T15:49:55.582Z,50.40
2023-03-06T15:52:23.924Z,55.30
2023-03-06T15:54:52.083Z,56.40
2023-03-06T15:57:26.605Z,45.22
2023-03-06T15:59:59.598Z,51.10
2023-03-06T16:02:44.034Z,52.13
2023-03-06T16:05:16.835Z,48.95
2023-03-06T16:07:47.567Z,50.50
2023-03-06T16:10:52.622Z,56.90
2023-03-06T16:13:28.291Z,66.13
2023-03-06T16:15:58.295Z,54.20
2023-03-06T16:18:26.766Z,57.88
2023-03-06T16:20:56.188Z,51.03
2023-03-06T16:23:26.171Z,50.90
2023-03-06T16:25:54.115Z,55.95
2023-03-06T16:28:56.714Z,72.38
2023-03-06T16:31:24.778Z,55.67
2023-03-06T16:33:55.075Z,62.05
2023-03-06T16:36:28.265Z,64.95
2023-03-06T16:38:57.502Z,67.85
2023-03-06T16:41:27.841Z,64.55
2023-03-06T16:43:56.259Z,70.05
2023-03-06T16:46:24.637Z,77.57
2023-03-06T16:49:04.907Z,68.93
2023-03-06T16:51:33.741Z,75.40
2023-03-06T16:54:05.607Z,85.90
2023-03-06T16:56:34.752Z,80.35
2023-03-06T16:59:03.971Z,80.22
2023-03-06T17:01:35.492Z,91.53
2023-03-06T17:04:05.054Z,90.95
2023-03-06T17:06:39.339Z,88.53
2023-03-06T17:09:07.836Z,81.25
2023-03-06T17:11:38.857Z,77.88
2023-03-06T17:14:09.530Z,77.50
2023-03-06T17:16:40.567Z,73.13
2023-03-06T17:19:18.675Z,76.90
2023-03-06T17:21:54.529Z,64.07
2023-03-06T17:25:05.520Z,54.83
2023-03-06T17:27:35.422Z,52.22
2023-03-06T17:30:06.558Z,59.28
2023-03-06T17:32:46.695Z,58.42
2023-03-06T17:40:00.279Z,69.85
2023-03-06T17:43:11.730Z,67.40
2023-03-06T17:45:45.609Z,57.13
2023-03-06T17:48:23.528Z,56.63
2023-03-06T17:51:02.536Z,69.35
2023-03-06T17:54:54.348Z,66.43
2023-03-06T18:03:32.906Z,51.22
2023-03-06T18:06:13.944Z,49.35
2023-03-06T18:10:36.426Z,51.47
2023-03-06T18:14:14.638Z,53.95
2023-03-06T18:25:05.775Z,68.82
2023-03-06T18:27:34.672Z,63.60
2023-03-06T18:30:04.068Z,68.35
2023-03-06T18:32:34.010Z,68.00
2023-03-06T18:40:56.621Z,53.58
2023-03-06T18:53:01.406Z,54.40
2023-03-06T18:56:02.240Z,67.47
2023-03-06T18:58:41.123Z,75.32
2023-03-06T19:05:46.519Z,73.05
2023-03-06T19:08:20.974Z,70.80
2023-03-06T19:10:53.876Z,65.63
2023-03-06T19:13:24.725Z,58.35
2023-03-06T19:15:59.530Z,64.05
2023-03-06T19:18:55.556Z,39.58
2023-03-06T19:21:26.998Z,40.63
2023-03-06T19:23:59.745Z,41.25
2023-03-06T19:26:28.508Z,32.72
2023-03-06T19:29:00.936Z,43.75
2023-03-06T19:31:32.005Z,34.78
2023-03-06T19:34:00.785Z,34.42
2023-03-06T19:36:33.654Z,37.90
2023-03-06T19:39:04.714Z,36.78
2023-03-06T19:41:34.713Z,35.58
2023-03-06T19:44:05.148Z,44.70
2023-03-06T19:47:05.984Z,44.72
2023-03-06T19:49:48.257Z,36.00
2023-03-06T19:52:40.697Z,36.53
2023-03-06T19:55:41.167Z,45.88
2023-03-06T19:58:13.494Z,49.78
2023-03-06T20:00:48.374Z,50.92
2023-03-06T20:03:17.358Z,46.20
2023-03-06T20:06:03.307Z,42.55
2023-03-06T20:08:36.554Z,36.50
2023-03-06T20:11:05.135Z,36.03
2023-03-06T20:13:34.942Z,41.45
2023-03-06T20:20:44.570Z,37.20
2023-03-06T20:23:16.234Z,38.83
2023-03-06T20:25:46.779Z,29.10
2023-03-06T20:28:19.604Z,40.88
2023-03-06T20:30:51.932Z,37.47
2023-03-06T20:33:27.392Z,44.03
2023-03-06T20:35:59.579Z,42.03
2023-03-06T20:38:34.747Z,41.65
2023-03-06T20:41:06.403Z,39.75
2023-03-06T20:44:08.507Z,34.25
2023-03-06T20:46:41.789Z,28.13
2023-03-06T20:49:15.075Z,24.63
2023-03-06T20:51:44.273Z,24.38
2023-03-06T20:54:14.795Z,26.52
2023-03-06T20:56:59.137Z,36.45
2023-03-06T20:59:35.557Z,39.13
2023-03-06T21:02:05.334Z,35.90
2023-03-06T21:04:35.497Z,27.40
2023-03-06T21:07:04.158Z,29.02
2023-03-06T21:23:45.673Z,26.95
2023-03-06T21:26:20.257Z,28.00
2023-03-06T21:28:53.721Z,31.17
2023-03-06T21:31:23.068Z,25.10
2023-03-06T21:33:54.920Z,26.63
2023-03-06T21:36:59.212Z,24.17
2023-03-06T21:39:27.837Z,28.55
2023-03-06T21:42:29.866Z,30.80
2023-03-06T21:45:05.540Z,22.70
2023-03-06T21:47:48.527Z,25.42
2023-03-06T21:51:24.236Z,25.17
2023-03-06T21:54:14.367Z,22.50
2023-03-06T21:56:45.711Z,21.73
2023-03-06T21:59:17.566Z,25.02
2023-03-06T22:01:47.692Z,27.25
2023-03-06T22:04:15.661Z,26.75
2023-03-06T22:06:44.428Z,25.23
2023-03-06T22:09:19.313Z,25.33
2023-03-06T22:11:48.311Z,25.48
2023-03-06T22:14:19.242Z,34.85
2023-03-06T22:16:53.759Z,32.25
2023-03-06T22:19:22.591Z,31.95
2023-03-06T22:21:50.532Z,32.55
2023-03-06T22:24:19.928Z,29.15
2023-03-06T22:26:48.575Z,30.92
2023-03-06T22:29:18.500Z,28.58
2023-03-06T22:31:48.112Z,32.70
2023-03-06T22:34:16.356Z,29.65
2023-03-06T22:37:05.127Z,33.67
2023-03-06T22:39:34.867Z,39.10
2023-03-06T22:42:02.990Z,49.75
2023-03-06T22:44:34.449Z,41.22
2023-03-06T22:47:05.783Z,44.88
2023-03-06T22:49:35.216Z,47.60
2023-03-06T22:52:03.815Z,57.92
2023-03-06T22:54:33.276Z,47.88
2023-03-06T22:57:01.747Z,52.63
2023-03-06T22:59:30.046Z,48.72
2023-03-06T23:02:02.799Z,53.55
2023-03-06T23:04:33.207Z,45.55
2023-03-06T23:07:01.262Z,41.08
2023-03-06T23:09:31.368Z,45.05
2023-03-06T23:12:19.753Z,49.35
2023-03-06T23:15:08.781Z,44.75
2023-03-06T23:18:01.486Z,47.60
2023-03-06T23:20:48.719Z,52.53
2023-03-06T23:23:37.689Z,44.17
2023-03-06T23:26:07.887Z,40.03
2023-03-06T23:28:36.513Z,38.20
2023-03-06T23:31:08.798Z,43.75
2023-03-06T23:33:39.071Z,41.28
2023-03-06T23:36:08.608Z,37.72
2023-03-06T23:38:38.316Z,42.80
2023-03-06T23:41:13.198Z,32.75
2023-03-06T23:43:43.839Z,32.65
2023-03-06T23:46:12.366Z,34.30
2023-03-06T23:48:41.529Z,35.95
2023-03-06T23:51:20.165Z,38.40
2023-03-06T23:53:54.704Z,37.65
2023-03-06T23:56:23.899Z,34.75
2023-03-06T23:58:54.331Z,35.60
